sensor_id;sensor_type;location;lat;lon;timestamp;P1;durP1;ratioP1;P2;durP2;ratioP2
40953;SDS011;26686;50.130;8.710;2022-12-07T00:01:56;11.55;;;10.30;;
40953;SDS011;26686;50.130;8.710;2022-12-07T00:06:57;11.00;;;9.90;;
40953;SDS011;26686;50.130;8.710;2022-12-07T00:11:58;11.65;;;9.63;;
40953;SDS011;26686;50.130;8.710;2022-12-07T00:17:00;12.30;;;9.95;;
40953;SDS011;26686;50.130;8.710;2022-12-07T00:22:02;11.82;;;9.40;;
40953;SDS011;26686;50.130;8.710;2022-12-07T00:27:03;11.75;;;9.95;;
40953;SDS011;26686;50.130;8.710;2022-12-07T00:32:04;11.65;;;10.43;;
40953;SDS011;26686;50.130;8.710;2022-12-07T00:37:06;11.40;;;10.20;;
40953;SDS011;26686;50.130;8.710;2022-12-07T00:42:07;11.73;;;10.20;;
40953;SDS011;26686;50.130;8.710;2022-12-07T00:47:08;11.68;;;10.10;;
40953;SDS011;26686;50.130;8.710;2022-12-07T00:52:10;10.23;;;8.95;;
40953;SDS011;26686;50.130;8.710;2022-12-07T00:57:11;11.88;;;10.20;;
40953;SDS011;26686;50.130;8.710;2022-12-07T01:02:12;11.38;;;9.98;;
40953;SDS011;26686;50.130;8.710;2022-12-07T01:07:14;11.30;;;9.82;;
40953;SDS011;26686;50.130;8.710;2022-12-07T01:12:15;12.48;;;10.05;;
40953;SDS011;26686;50.130;8.710;2022-12-07T01:17:17;11.98;;;9.23;;
40953;SDS011;26686;50.130;8.710;2022-12-07T01:22:18;12.75;;;10.20;;
40953;SDS011;26686;50.130;8.710;2022-12-07T01:27:19;11.13;;;9.55;;
40953;SDS011;26686;50.130;8.710;2022-12-07T01:32:21;12.77;;;9.82;;
40953;SDS011;26686;50.130;8.710;2022-12-07T01:37:22;11.82;;;9.60;;
40953;SDS011;26686;50.130;8.710;2022-12-07T01:42:24;10.90;;;8.95;;
40953;SDS011;26686;50.130;8.710;2022-12-07T01:47:25;10.73;;;8.60;;
40953;SDS011;26686;50.130;8.710;2022-12-07T01:52:30;13.98;;;8.80;;
40953;SDS011;26686;50.130;8.710;2022-12-07T01:57:35;12.00;;;8.98;;
40953;SDS011;26686;50.130;8.710;2022-12-07T02:02:44;10.48;;;8.15;;
40953;SDS011;26686;50.130;8.710;2022-12-07T02:07:49;11.23;;;9.07;;
40953;SDS011;26686;50.130;8.710;2022-12-07T02:12:54;15.52;;;10.85;;
40953;SDS011;26686;50.130;8.710;2022-12-07T02:24:14;13.80;;;10.38;;
40953;SDS011;26686;50.130;8.710;2022-12-07T02:29:26;11.82;;;9.07;;
40953;SDS011;26686;50.130;8.710;2022-12-07T02:39:59;10.70;;;8.82;;
40953;SDS011;26686;50.130;8.710;2022-12-07T02:45:06;9.27;;;7.80;;
40953;SDS011;26686;50.130;8.710;2022-12-07T02:50:09;11.00;;;8.43;;
40953;SDS011;26686;50.130;8.710;2022-12-07T02:55:11;10.25;;;8.60;;
40953;SDS011;26686;50.130;8.710;2022-12-07T03:00:17;9.43;;;7.47;;
40953;SDS011;26686;50.130;8.710;2022-12-07T03:05:43;8.40;;;7.32;;
40953;SDS011;26686;50.130;8.710;2022-12-07T03:21:08;9.73;;;7.25;;
40953;SDS011;26686;50.130;8.710;2022-12-07T03:26:14;10.43;;;7.05;;
40953;SDS011;26686;50.130;8.710;2022-12-07T03:31:22;6.70;;;5.63;;
40953;SDS011;26686;50.130;8.710;2022-12-07T03:36:40;8.57;;;6.65;;
40953;SDS011;26686;50.130;8.710;2022-12-07T03:41:47;16.45;;;8.15;;
40953;SDS011;26686;50.130;8.710;2022-12-07T03:46:58;8.77;;;7.88;;
40953;SDS011;26686;50.130;8.710;2022-12-07T03:57:15;8.27;;;6.75;;
40953;SDS011;26686;50.130;8.710;2022-12-07T04:02:17;8.50;;;6.53;;
40953;SDS011;26686;50.130;8.710;2022-12-07T04:07:21;9.00;;;7.60;;
40953;SDS011;26686;50.130;8.710;2022-12-07T04:12:22;7.78;;;6.80;;
40953;SDS011;26686;50.130;8.710;2022-12-07T04:17:24;8.18;;;6.90;;
40953;SDS011;26686;50.130;8.710;2022-12-07T04:22:26;7.90;;;6.93;;
40953;SDS011;26686;50.130;8.710;2022-12-07T04:27:27;7.65;;;5.88;;
40953;SDS011;26686;50.130;8.710;2022-12-07T04:32:28;9.55;;;7.15;;
40953;SDS011;26686;50.130;8.710;2022-12-07T04:37:30;7.18;;;6.32;;
40953;SDS011;26686;50.130;8.710;2022-12-07T04:42:31;7.97;;;6.43;;
40953;SDS011;26686;50.130;8.710;2022-12-07T04:47:33;7.72;;;6.72;;
40953;SDS011;26686;50.130;8.710;2022-12-07T04:52:34;7.78;;;6.32;;
40953;SDS011;26686;50.130;8.710;2022-12-07T04:57:35;8.15;;;6.07;;
40953;SDS011;26686;50.130;8.710;2022-12-07T05:02:37;6.97;;;6.00;;
40953;SDS011;26686;50.130;8.710;2022-12-07T05:07:38;7.15;;;6.45;;
40953;SDS011;26686;50.130;8.710;2022-12-07T05:12:40;9.50;;;6.40;;
40953;SDS011;26686;50.130;8.710;2022-12-07T05:17:41;9.18;;;6.78;;
40953;SDS011;26686;50.130;8.710;2022-12-07T05:22:42;7.63;;;6.63;;
40953;SDS011;26686;50.130;8.710;2022-12-07T05:27:44;10.32;;;6.72;;
40953;SDS011;26686;50.130;8.710;2022-12-07T05:32:45;10.10;;;6.53;;
40953;SDS011;26686;50.130;8.710;2022-12-07T05:37:47;8.30;;;6.53;;
40953;SDS011;26686;50.130;8.710;2022-12-07T05:42:48;8.10;;;6.10;;
40953;SDS011;26686;50.130;8.710;2022-12-07T05:47:49;7.43;;;6.65;;
40953;SDS011;26686;50.130;8.710;2022-12-07T05:52:51;8.98;;;7.38;;
40953;SDS011;26686;50.130;8.710;2022-12-07T05:57:52;10.18;;;7.53;;
40953;SDS011;26686;50.130;8.710;2022-12-07T06:03:12;11.95;;;7.90;;
40953;SDS011;26686;50.130;8.710;2022-12-07T06:08:14;9.48;;;8.35;;
40953;SDS011;26686;50.130;8.710;2022-12-07T06:13:16;8.85;;;7.28;;
40953;SDS011;26686;50.130;8.710;2022-12-07T06:18:17;9.60;;;8.00;;
40953;SDS011;26686;50.130;8.710;2022-12-07T06:23:19;11.07;;;7.70;;
40953;SDS011;26686;50.130;8.710;2022-12-07T06:28:20;9.13;;;7.80;;
40953;SDS011;26686;50.130;8.710;2022-12-07T06:33:21;8.95;;;7.90;;
40953;SDS011;26686;50.130;8.710;2022-12-07T06:38:23;9.63;;;7.85;;
40953;SDS011;26686;50.130;8.710;2022-12-07T06:43:24;11.52;;;8.70;;
40953;SDS011;26686;50.130;8.710;2022-12-07T06:48:25;10.82;;;8.95;;
40953;SDS011;26686;50.130;8.710;2022-12-07T06:53:27;10.35;;;7.88;;
40953;SDS011;26686;50.130;8.710;2022-12-07T06:58:29;9.25;;;8.05;;
40953;SDS011;26686;50.130;8.710;2022-12-07T07:03:31;10.75;;;7.80;;
40953;SDS011;26686;50.130;8.710;2022-12-07T07:08:33;9.75;;;8.52;;
40953;SDS011;26686;50.130;8.710;2022-12-07T07:13:35;11.95;;;9.15;;
40953;SDS011;26686;50.130;8.710;2022-12-07T07:18:36;9.88;;;7.93;;
40953;SDS011;26686;50.130;8.710;2022-12-07T07:23:38;10.55;;;8.52;;
40953;SDS011;26686;50.130;8.710;2022-12-07T07:28:39;14.57;;;9.23;;
40953;SDS011;26686;50.130;8.710;2022-12-07T07:33:41;10.05;;;8.07;;
40953;SDS011;26686;50.130;8.710;2022-12-07T07:38:42;13.43;;;9.77;;
40953;SDS011;26686;50.130;8.710;2022-12-07T07:43:43;8.85;;;7.95;;
40953;SDS011;26686;50.130;8.710;2022-12-07T07:48:45;11.13;;;9.38;;
40953;SDS011;26686;50.130;8.710;2022-12-07T07:53:46;12.25;;;9.90;;
40953;SDS011;26686;50.130;8.710;2022-12-07T07:58:51;12.95;;;8.32;;
40953;SDS011;26686;50.130;8.710;2022-12-07T08:03:53;12.15;;;8.52;;
40953;SDS011;26686;50.130;8.710;2022-12-07T08:08:54;9.88;;;8.57;;
40953;SDS011;26686;50.130;8.710;2022-12-07T08:13:56;9.63;;;8.13;;
40953;SDS011;26686;50.130;8.710;2022-12-07T08:18:57;11.15;;;9.40;;
40953;SDS011;26686;50.130;8.710;2022-12-07T08:23:59;9.40;;;8.25;;
40953;SDS011;26686;50.130;8.710;2022-12-07T08:29:00;11.25;;;9.23;;
40953;SDS011;26686;50.130;8.710;2022-12-07T08:34:02;9.68;;;8.30;;
40953;SDS011;26686;50.130;8.710;2022-12-07T08:39:03;11.73;;;8.30;;
40953;SDS011;26686;50.130;8.710;2022-12-07T08:44:25;10.32;;;8.20;;
40953;SDS011;26686;50.130;8.710;2022-12-07T08:49:27;9.75;;;8.75;;
40953;SDS011;26686;50.130;8.710;2022-12-07T08:54:35;8.95;;;7.95;;
40953;SDS011;26686;50.130;8.710;2022-12-07T08:59:39;10.10;;;8.70;;
40953;SDS011;26686;50.130;8.710;2022-12-07T09:04:41;10.60;;;7.78;;
40953;SDS011;26686;50.130;8.710;2022-12-07T09:09:42;9.13;;;7.10;;
40953;SDS011;26686;50.130;8.710;2022-12-07T09:14:43;10.45;;;7.70;;
40953;SDS011;26686;50.130;8.710;2022-12-07T09:19:45;7.85;;;6.57;;
40953;SDS011;26686;50.130;8.710;2022-12-07T09:24:46;9.15;;;6.88;;
40953;SDS011;26686;50.130;8.710;2022-12-07T09:29:48;6.78;;;5.20;;
40953;SDS011;26686;50.130;8.710;2022-12-07T09:34:49;6.80;;;5.78;;
40953;SDS011;26686;50.130;8.710;2022-12-07T09:39:51;7.50;;;5.43;;
40953;SDS011;26686;50.130;8.710;2022-12-07T09:44:52;5.70;;;5.10;;
40953;SDS011;26686;50.130;8.710;2022-12-07T09:50:00;8.70;;;6.20;;
40953;SDS011;26686;50.130;8.710;2022-12-07T09:55:14;9.90;;;6.20;;
40953;SDS011;26686;50.130;8.710;2022-12-07T10:00:18;10.30;;;6.40;;
40953;SDS011;26686;50.130;8.710;2022-12-07T10:10:30;5.80;;;4.78;;
40953;SDS011;26686;50.130;8.710;2022-12-07T10:15:52;6.45;;;5.22;;
40953;SDS011;26686;50.130;8.710;2022-12-07T10:21:01;7.97;;;5.28;;
40953;SDS011;26686;50.130;8.710;2022-12-07T10:26:18;5.15;;;4.60;;
40953;SDS011;26686;50.130;8.710;2022-12-07T10:31:23;5.88;;;4.32;;
40953;SDS011;26686;50.130;8.710;2022-12-07T10:36:26;6.20;;;4.50;;
40953;SDS011;26686;50.130;8.710;2022-12-07T10:41:28;3.05;;;2.75;;
40953;SDS011;26686;50.130;8.710;2022-12-07T10:46:39;4.35;;;2.75;;
40953;SDS011;26686;50.130;8.710;2022-12-07T10:52:14;3.15;;;2.28;;
40953;SDS011;26686;50.130;8.710;2022-12-07T10:57:37;3.55;;;2.10;;
40953;SDS011;26686;50.130;8.710;2022-12-07T11:24:46;4.25;;;1.80;;
40953;SDS011;26686;50.130;8.710;2022-12-07T11:30:25;3.88;;;1.42;;
40953;SDS011;26686;50.130;8.710;2022-12-07T11:40:38;3.92;;;1.70;;
40953;SDS011;26686;50.130;8.710;2022-12-07T11:45:42;3.83;;;2.10;;
40953;SDS011;26686;50.130;8.710;2022-12-07T11:50:50;3.25;;;2.17;;
40953;SDS011;26686;50.130;8.710;2022-12-07T12:01:13;5.55;;;3.10;;
40953;SDS011;26686;50.130;8.710;2022-12-07T12:06:24;2.55;;;1.85;;
40953;SDS011;26686;50.130;8.710;2022-12-07T12:17:23;2.67;;;1.73;;
40953;SDS011;26686;50.130;8.710;2022-12-07T12:22:43;2.58;;;1.25;;
40953;SDS011;26686;50.130;8.710;2022-12-07T12:27:49;3.03;;;1.33;;
40953;SDS011;26686;50.130;8.710;2022-12-07T12:32:53;4.90;;;1.90;;
40953;SDS011;26686;50.130;8.710;2022-12-07T12:48:47;4.75;;;1.48;;
40953;SDS011;26686;50.130;8.710;2022-12-07T12:53:49;3.20;;;1.63;;
40953;SDS011;26686;50.130;8.710;2022-12-07T12:58:50;6.55;;;1.40;;
40953;SDS011;26686;50.130;8.710;2022-12-07T13:04:30;1.85;;;1.15;;
40953;SDS011;26686;50.130;8.710;2022-12-07T13:09:41;3.30;;;2.10;;
40953;SDS011;26686;50.130;8.710;2022-12-07T13:14:52;3.10;;;0.95;;
40953;SDS011;26686;50.130;8.710;2022-12-07T13:19:54;4.93;;;1.80;;
40953;SDS011;26686;50.130;8.710;2022-12-07T13:24:57;4.72;;;1.30;;
40953;SDS011;26686;50.130;8.710;2022-12-07T13:30:01;2.15;;;1.08;;
40953;SDS011;26686;50.130;8.710;2022-12-07T13:35:26;1.95;;;1.00;;
40953;SDS011;26686;50.130;8.710;2022-12-07T13:40:30;1.33;;;0.70;;
40953;SDS011;26686;50.130;8.710;2022-12-07T13:45:32;2.75;;;1.08;;
40953;SDS011;26686;50.130;8.710;2022-12-07T13:50:54;2.15;;;0.70;;
40953;SDS011;26686;50.130;8.710;2022-12-07T13:55:57;2.28;;;0.88;;
40953;SDS011;26686;50.130;8.710;2022-12-07T14:01:00;2.13;;;0.70;;
40953;SDS011;26686;50.130;8.710;2022-12-07T14:11:21;2.22;;;0.90;;
40953;SDS011;26686;50.130;8.710;2022-12-07T14:16:33;3.20;;;1.25;;
40953;SDS011;26686;50.130;8.710;2022-12-07T14:21:36;1.70;;;1.05;;
40953;SDS011;26686;50.130;8.710;2022-12-07T14:26:39;2.30;;;1.70;;
40953;SDS011;26686;50.130;8.710;2022-12-07T14:31:41;4.05;;;2.17;;
40953;SDS011;26686;50.130;8.710;2022-12-07T14:36:43;2.55;;;1.38;;
40953;SDS011;26686;50.130;8.710;2022-12-07T14:41:44;3.50;;;1.42;;
40953;SDS011;26686;50.130;8.710;2022-12-07T14:46:52;3.67;;;2.08;;
40953;SDS011;26686;50.130;8.710;2022-12-07T14:52:18;4.25;;;1.50;;
40953;SDS011;26686;50.130;8.710;2022-12-07T14:57:42;2.67;;;1.52;;
40953;SDS011;26686;50.130;8.710;2022-12-07T15:02:44;1.92;;;1.10;;
40953;SDS011;26686;50.130;8.710;2022-12-07T15:07:47;2.88;;;1.40;;
40953;SDS011;26686;50.130;8.710;2022-12-07T15:12:49;3.47;;;1.65;;
40953;SDS011;26686;50.130;8.710;2022-12-07T15:17:51;3.50;;;1.25;;
40953;SDS011;26686;50.130;8.710;2022-12-07T15:22:52;3.30;;;1.20;;
40953;SDS011;26686;50.130;8.710;2022-12-07T15:27:54;2.17;;;1.55;;
40953;SDS011;26686;50.130;8.710;2022-12-07T15:32:55;2.67;;;1.40;;
40953;SDS011;26686;50.130;8.710;2022-12-07T15:37:56;2.45;;;1.52;;
40953;SDS011;26686;50.130;8.710;2022-12-07T15:42:58;4.35;;;1.50;;
40953;SDS011;26686;50.130;8.710;2022-12-07T15:47:59;3.08;;;1.33;;
40953;SDS011;26686;50.130;8.710;2022-12-07T15:53:21;1.70;;;1.05;;
40953;SDS011;26686;50.130;8.710;2022-12-07T15:58:22;3.35;;;1.90;;
40953;SDS011;26686;50.130;8.710;2022-12-07T16:03:23;3.53;;;1.90;;
40953;SDS011;26686;50.130;8.710;2022-12-07T16:08:25;4.97;;;1.77;;
40953;SDS011;26686;50.130;8.710;2022-12-07T16:13:33;2.60;;;2.15;;
40953;SDS011;26686;50.130;8.710;2022-12-07T16:18:35;5.63;;;3.05;;
40953;SDS011;26686;50.130;8.710;2022-12-07T16:23:37;10.18;;;2.47;;
40953;SDS011;26686;50.130;8.710;2022-12-07T16:28:38;5.05;;;2.40;;
40953;SDS011;26686;50.130;8.710;2022-12-07T16:33:40;5.13;;;2.17;;
40953;SDS011;26686;50.130;8.710;2022-12-07T16:38:43;4.55;;;2.45;;
40953;SDS011;26686;50.130;8.710;2022-12-07T16:43:52;3.55;;;2.25;;
40953;SDS011;26686;50.130;8.710;2022-12-07T16:48:53;6.18;;;2.40;;
40953;SDS011;26686;50.130;8.710;2022-12-07T16:53:55;6.07;;;2.28;;
40953;SDS011;26686;50.130;8.710;2022-12-07T16:58:59;5.20;;;2.40;;
40953;SDS011;26686;50.130;8.710;2022-12-07T17:04:01;3.92;;;2.42;;
40953;SDS011;26686;50.130;8.710;2022-12-07T17:09:03;4.30;;;1.95;;
40953;SDS011;26686;50.130;8.710;2022-12-07T17:14:09;4.07;;;2.45;;
40953;SDS011;26686;50.130;8.710;2022-12-07T17:19:30;2.75;;;1.33;;
40953;SDS011;26686;50.130;8.710;2022-12-07T17:24:31;4.05;;;1.85;;
40953;SDS011;26686;50.130;8.710;2022-12-07T17:29:32;4.72;;;1.38;;
40953;SDS011;26686;50.130;8.710;2022-12-07T17:34:34;2.55;;;1.35;;
40953;SDS011;26686;50.130;8.710;2022-12-07T17:39:37;1.55;;;1.23;;
40953;SDS011;26686;50.130;8.710;2022-12-07T17:44:39;4.25;;;2.17;;
40953;SDS011;26686;50.130;8.710;2022-12-07T17:49:40;5.85;;;2.00;;
40953;SDS011;26686;50.130;8.710;2022-12-07T17:54:42;4.40;;;2.45;;
40953;SDS011;26686;50.130;8.710;2022-12-07T17:59:43;3.40;;;1.88;;
40953;SDS011;26686;50.130;8.710;2022-12-07T18:04:45;4.75;;;2.30;;
40953;SDS011;26686;50.130;8.710;2022-12-07T18:09:47;3.20;;;2.60;;
40953;SDS011;26686;50.130;8.710;2022-12-07T18:14:49;9.55;;;2.13;;
40953;SDS011;26686;50.130;8.710;2022-12-07T18:19:51;5.18;;;2.95;;
40953;SDS011;26686;50.130;8.710;2022-12-07T18:24:52;4.50;;;2.58;;
40953;SDS011;26686;50.130;8.710;2022-12-07T18:29:55;4.50;;;2.53;;
40953;SDS011;26686;50.130;8.710;2022-12-07T18:34:56;6.78;;;3.17;;
40953;SDS011;26686;50.130;8.710;2022-12-07T18:39:58;5.93;;;3.65;;
40953;SDS011;26686;50.130;8.710;2022-12-07T18:44:59;6.15;;;3.90;;
40953;SDS011;26686;50.130;8.710;2022-12-07T18:50:01;4.45;;;2.95;;
40953;SDS011;26686;50.130;8.710;2022-12-07T18:55:02;5.90;;;3.78;;
40953;SDS011;26686;50.130;8.710;2022-12-07T19:00:04;5.18;;;2.97;;
40953;SDS011;26686;50.130;8.710;2022-12-07T19:05:06;5.35;;;3.88;;
40953;SDS011;26686;50.130;8.710;2022-12-07T19:10:08;6.38;;;4.35;;
40953;SDS011;26686;50.130;8.710;2022-12-07T19:15:11;6.53;;;3.80;;
40953;SDS011;26686;50.130;8.710;2022-12-07T19:20:13;5.80;;;3.65;;
40953;SDS011;26686;50.130;8.710;2022-12-07T19:25:15;5.30;;;3.45;;
40953;SDS011;26686;50.130;8.710;2022-12-07T19:30:17;4.43;;;3.30;;
40953;SDS011;26686;50.130;8.710;2022-12-07T19:35:18;7.03;;;3.85;;
40953;SDS011;26686;50.130;8.710;2022-12-07T19:40:19;7.50;;;4.38;;
40953;SDS011;26686;50.130;8.710;2022-12-07T19:45:21;6.43;;;4.72;;
40953;SDS011;26686;50.130;8.710;2022-12-07T19:50:22;6.95;;;4.70;;
40953;SDS011;26686;50.130;8.710;2022-12-07T19:55:23;9.75;;;6.03;;
40953;SDS011;26686;50.130;8.710;2022-12-07T20:00:25;8.27;;;5.30;;
40953;SDS011;26686;50.130;8.710;2022-12-07T20:05:26;8.98;;;7.97;;
40953;SDS011;26686;50.130;8.710;2022-12-07T20:10:28;7.63;;;5.35;;
40953;SDS011;26686;50.130;8.710;2022-12-07T20:15:29;8.10;;;5.22;;
40953;SDS011;26686;50.130;8.710;2022-12-07T20:20:30;8.05;;;5.50;;
40953;SDS011;26686;50.130;8.710;2022-12-07T20:25:34;8.52;;;6.10;;
40953;SDS011;26686;50.130;8.710;2022-12-07T20:30:36;7.95;;;7.00;;
40953;SDS011;26686;50.130;8.710;2022-12-07T20:35:38;8.65;;;6.35;;
40953;SDS011;26686;50.130;8.710;2022-12-07T20:40:44;8.68;;;6.03;;
40953;SDS011;26686;50.130;8.710;2022-12-07T20:45:47;6.85;;;5.13;;
40953;SDS011;26686;50.130;8.710;2022-12-07T20:50:49;7.53;;;5.32;;
40953;SDS011;26686;50.130;8.710;2022-12-07T20:55:51;9.20;;;6.28;;
40953;SDS011;26686;50.130;8.710;2022-12-07T21:00:58;7.63;;;5.75;;
40953;SDS011;26686;50.130;8.710;2022-12-07T21:06:03;6.15;;;4.97;;
40953;SDS011;26686;50.130;8.710;2022-12-07T21:11:05;7.40;;;5.07;;
40953;SDS011;26686;50.130;8.710;2022-12-07T21:21:18;6.70;;;4.75;;
40953;SDS011;26686;50.130;8.710;2022-12-07T21:26:21;6.78;;;5.50;;
40953;SDS011;26686;50.130;8.710;2022-12-07T21:31:24;6.80;;;4.78;;
40953;SDS011;26686;50.130;8.710;2022-12-07T21:36:26;5.25;;;4.57;;
40953;SDS011;26686;50.130;8.710;2022-12-07T21:41:29;8.48;;;5.82;;
40953;SDS011;26686;50.130;8.710;2022-12-07T21:46:31;9.20;;;5.87;;
40953;SDS011;26686;50.130;8.710;2022-12-07T21:51:35;5.75;;;5.15;;
40953;SDS011;26686;50.130;8.710;2022-12-07T21:56:37;8.63;;;6.47;;
40953;SDS011;26686;50.130;8.710;2022-12-07T22:01:41;7.33;;;5.90;;
40953;SDS011;26686;50.130;8.710;2022-12-07T22:06:47;7.30;;;6.60;;
40953;SDS011;26686;50.130;8.710;2022-12-07T22:11:49;10.13;;;7.05;;
40953;SDS011;26686;50.130;8.710;2022-12-07T22:16:51;7.80;;;6.20;;
40953;SDS011;26686;50.130;8.710;2022-12-07T22:21:52;8.95;;;7.57;;
40953;SDS011;26686;50.130;8.710;2022-12-07T22:26:54;10.65;;;7.75;;
40953;SDS011;26686;50.130;8.710;2022-12-07T22:31:55;9.23;;;7.90;;
40953;SDS011;26686;50.130;8.710;2022-12-07T22:36:56;9.43;;;7.88;;
40953;SDS011;26686;50.130;8.710;2022-12-07T22:41:58;11.88;;;8.13;;
40953;SDS011;26686;50.130;8.710;2022-12-07T22:46:59;9.85;;;7.78;;
40953;SDS011;26686;50.130;8.710;2022-12-07T22:52:00;10.02;;;7.50;;
40953;SDS011;26686;50.130;8.710;2022-12-07T22:57:02;11.65;;;8.70;;
40953;SDS011;26686;50.130;8.710;2022-12-07T23:02:03;11.10;;;9.57;;
40953;SDS011;26686;50.130;8.710;2022-12-07T23:07:05;12.77;;;9.25;;
40953;SDS011;26686;50.130;8.710;2022-12-07T23:12:06;10.60;;;8.85;;
40953;SDS011;26686;50.130;8.710;2022-12-07T23:17:26;11.77;;;8.90;;
40953;SDS011;26686;50.130;8.710;2022-12-07T23:22:27;11.02;;;9.18;;
40953;SDS011;26686;50.130;8.710;2022-12-07T23:27:29;11.18;;;9.18;;
40953;SDS011;26686;50.130;8.710;2022-12-07T23:32:30;11.07;;;9.30;;
40953;SDS011;26686;50.130;8.710;2022-12-07T23:37:31;15.18;;;10.38;;
40953;SDS011;26686;50.130;8.710;2022-12-07T23:42:33;13.30;;;9.45;;
40953;SDS011;26686;50.130;8.710;2022-12-07T23:47:34;11.20;;;9.43;;
40953;SDS011;26686;50.130;8.710;2022-12-07T23:52:35;13.38;;;10.07;;
40953;SDS011;26686;50.130;8.710;2022-12-07T23:57:37;12.70;;;10.77;;
